Time,TemperatureF,DewpointF,PressureIn,WindDirection,WindDirectionDegrees,WindSpeedMPH,WindSpeedGustMPH,Humidity,HourlyPrecipIn,Conditions,Clouds,dailyrainin,SoftwareType,DateUTC
2013-03-06 00:02:00,43.0,42.0,30.13,WSW,244,1.0,2.0,95,-99.99,,,-99.99,,2013-03-06 05:02:00,
2013-03-06 00:12:00,43.0,42.0,30.13,WSW,244,1.0,2.0,95,-99.99,,,-99.99,,2013-03-06 05:12:00,
2013-03-06 00:22:00,44.0,43.0,30.13,SSW,209,1.0,2.0,95,-99.99,,,-99.99,,2013-03-06 05:22:00,
2013-03-06 00:32:00,44.0,43.0,30.13,SSW,209,1.0,2.0,95,-99.99,,,-99.99,,2013-03-06 05:32:00,
2013-03-06 00:42:00,43.0,42.0,30.12,SSE,167,1.0,2.0,96,-99.99,,,-99.99,,2013-03-06 05:42:00,
2013-03-06 00:52:00,43.0,42.0,30.12,SSE,167,1.0,2.0,96,-99.99,,,-99.99,,2013-03-06 05:52:00,
2013-03-06 01:02:00,43.0,42.0,30.11,SSE,158,1.0,2.0,96,-99.99,,,-99.99,,2013-03-06 06:02:00,
2013-03-06 01:11:00,43.0,42.0,30.11,SSE,158,1.0,2.0,96,-99.99,,,-99.99,,2013-03-06 06:11:00,
2013-03-06 01:22:00,43.0,42.0,30.10,SSE,164,2.0,4.0,96,-99.99,,,-99.99,,2013-03-06 06:22:00,
2013-03-06 01:32:00,43.0,42.0,30.10,SSE,164,2.0,4.0,96,-99.99,,,-99.99,,2013-03-06 06:32:00,
2013-03-06 01:42:00,43.0,42.0,30.10,SW,216,1.0,2.0,96,-99.99,,,-99.99,,2013-03-06 06:42:00,
2013-03-06 01:52:00,42.0,41.0,30.09,SSE,147,1.0,2.0,96,-99.99,,,-99.99,,2013-03-06 06:52:00,
2013-03-06 02:01:00,42.0,41.0,30.09,SSE,147,1.0,2.0,96,-99.99,,,-99.99,,2013-03-06 07:01:00,
2013-03-06 02:11:00,42.0,41.0,30.09,SSE,147,1.0,2.0,96,-99.99,,,-99.99,,2013-03-06 07:11:00,
2013-03-06 02:22:00,42.0,41.0,30.08,SSW,201,1.0,2.0,96,-99.99,,,-99.99,,2013-03-06 07:22:00,
2013-03-06 02:32:00,42.0,41.0,30.08,SSW,201,1.0,2.0,96,-99.99,,,-99.99,,2013-03-06 07:32:00,
2013-03-06 02:42:00,42.0,41.0,30.07,SSW,210,1.0,2.0,97,-99.99,,,-99.99,,2013-03-06 07:42:00,
2013-03-06 02:52:00,42.0,41.0,30.07,SSW,210,1.0,2.0,97,-99.99,,,-99.99,,2013-03-06 07:52:00,
2013-03-06 03:01:00,42.0,41.0,30.06,SE,135,1.0,2.0,96,-99.99,,,-99.99,,2013-03-06 08:01:00,
2013-03-06 03:11:00,42.0,41.0,30.06,SE,135,1.0,2.0,96,-99.99,,,-99.99,,2013-03-06 08:11:00,
2013-03-06 03:21:00,42.0,41.0,30.06,ENE,68,1.0,2.0,96,-99.99,,,-99.99,,2013-03-06 08:21:00,
2013-03-06 03:32:00,42.0,41.0,30.06,ENE,68,1.0,2.0,96,-99.99,,,-99.99,,2013-03-06 08:32:00,
2013-03-06 03:42:00,41.0,40.0,30.06,SW,230,1.0,1.0,97,-99.99,,,-99.99,,2013-03-06 08:42:00,
2013-03-06 03:52:00,41.0,40.0,30.06,SW,230,1.0,1.0,97,-99.99,,,-99.99,,2013-03-06 08:52:00,
2013-03-06 04:02:00,41.0,41.0,30.05,South,170,1.0,1.0,97,-99.99,,,-99.99,,2013-03-06 09:02:00,
2013-03-06 04:12:00,41.0,41.0,30.05,South,170,1.0,1.0,97,-99.99,,,-99.99,,2013-03-06 09:12:00,
2013-03-06 04:22:00,42.0,42.0,30.06,SE,145,1.0,2.0,97,-99.99,,,-99.99,,2013-03-06 09:22:00,
2013-03-06 04:32:00,42.0,42.0,30.06,SE,145,1.0,2.0,97,-99.99,,,-99.99,,2013-03-06 09:32:00,
2013-03-06 04:42:00,43.0,42.0,30.05,SE,141,2.0,3.0,97,-99.99,,,-99.99,,2013-03-06 09:42:00,
2013-03-06 04:52:00,43.0,42.0,30.05,SE,141,2.0,3.0,97,-99.99,,,-99.99,,2013-03-06 09:52:00,
2013-03-06 05:02:00,43.0,42.0,30.05,SE,143,1.0,2.0,97,-99.99,,,-99.99,,2013-03-06 10:02:00,
2013-03-06 05:11:00,43.0,42.0,30.05,SE,143,1.0,2.0,97,-99.99,,,-99.99,,2013-03-06 10:11:00,
2013-03-06 05:22:00,45.0,45.0,30.05,South,172,2.0,3.0,97,-99.99,,,-99.99,,2013-03-06 10:22:00,
2013-03-06 05:32:00,45.0,45.0,30.05,South,172,2.0,3.0,97,-99.99,,,-99.99,,2013-03-06 10:32:00,
2013-03-06 05:42:00,46.0,45.0,30.05,SSW,211,2.0,4.0,97,-99.99,,,-99.99,,2013-03-06 10:42:00,
2013-03-06 05:52:00,46.0,45.0,30.05,SSW,211,2.0,4.0,97,-99.99,,,-99.99,,2013-03-06 10:52:00,
2013-03-06 06:02:00,46.0,46.0,30.05,SSW,212,2.0,3.0,97,-99.99,,,-99.99,,2013-03-06 11:02:00,
2013-03-06 06:11:00,46.0,46.0,30.05,SSW,212,2.0,3.0,97,-99.99,,,-99.99,,2013-03-06 11:11:00,
2013-03-06 06:22:00,47.0,46.0,30.05,SW,223,3.0,5.0,97,-99.99,,,-99.99,,2013-03-06 11:22:00,
2013-03-06 06:32:00,47.0,46.0,30.05,SW,223,3.0,5.0,97,-99.99,,,-99.99,,2013-03-06 11:32:00,
2013-03-06 06:42:00,47.0,47.0,30.05,SW,218,2.0,5.0,97,-99.99,,,-99.99,,2013-03-06 11:42:00,
2013-03-06 06:52:00,47.0,47.0,30.05,SW,218,2.0,5.0,97,-99.99,,,-99.99,,2013-03-06 11:52:00,
2013-03-06 07:02:00,52.0,51.0,30.07,SW,226,3.0,5.0,98,-99.99,,,-99.99,,2013-03-06 12:02:00,
2013-03-06 07:12:00,52.0,51.0,30.07,SW,226,3.0,5.0,98,-99.99,,,-99.99,,2013-03-06 12:12:00,
2013-03-06 07:22:00,51.0,50.0,30.07,SW,220,3.0,4.0,98,-99.99,,,-99.99,,2013-03-06 12:22:00,
2013-03-06 07:33:00,51.0,50.0,30.07,SW,220,3.0,4.0,98,-99.99,,,-99.99,,2013-03-06 12:33:00,
2013-03-06 07:42:00,51.0,51.0,30.07,SW,217,2.0,4.0,98,-99.99,,,-99.99,,2013-03-06 12:42:00,
2013-03-06 07:53:00,51.0,51.0,30.07,SW,217,2.0,4.0,98,-99.99,,,-99.99,,2013-03-06 12:53:00,
2013-03-06 08:02:00,58.0,58.0,30.08,SW,221,3.0,5.0,98,-99.99,,,-99.99,,2013-03-06 13:02:00,
2013-03-06 08:12:00,58.0,58.0,30.08,SW,221,3.0,5.0,98,-99.99,,,-99.99,,2013-03-06 13:12:00,
2013-03-06 08:22:00,61.0,60.0,30.08,SW,225,3.0,6.0,97,-99.99,,,-99.99,,2013-03-06 13:22:00,
2013-03-06 08:32:00,61.0,60.0,30.08,SW,225,3.0,6.0,97,-99.99,,,-99.99,,2013-03-06 13:32:00,
2013-03-06 08:42:00,64.0,61.0,30.08,SW,223,4.0,7.0,90,-99.99,,,-99.99,,2013-03-06 13:42:00,
2013-03-06 08:52:00,64.0,61.0,30.08,SW,223,4.0,7.0,90,-99.99,,,-99.99,,2013-03-06 13:52:00,
2013-03-06 09:02:00,69.0,61.0,30.09,SW,229,8.0,14.0,76,-99.99,,,-99.99,,2013-03-06 14:02:00,
2013-03-06 09:11:00,69.0,61.0,30.09,SW,229,8.0,14.0,76,-99.99,,,-99.99,,2013-03-06 14:11:00,
2013-03-06 09:22:00,70.0,61.0,30.08,WSW,238,8.0,16.0,71,-99.99,,,-99.99,,2013-03-06 14:22:00,
2013-03-06 09:32:00,70.0,61.0,30.08,WSW,238,8.0,16.0,71,-99.99,,,-99.99,,2013-03-06 14:32:00,
2013-03-06 09:42:00,72.0,61.0,30.09,WSW,242,10.0,23.0,68,-99.99,,,-99.99,,2013-03-06 14:42:00,
2013-03-06 09:53:00,72.0,61.0,30.09,WSW,242,10.0,23.0,68,-99.99,,,-99.99,,2013-03-06 14:53:00,
2013-03-06 10:02:00,73.0,61.0,30.08,WSW,241,12.0,23.0,65,-99.99,,,-99.99,,2013-03-06 15:02:00,
2013-03-06 10:12:00,73.0,61.0,30.08,WSW,241,12.0,23.0,65,-99.99,,,-99.99,,2013-03-06 15:12:00,
2013-03-06 10:22:00,73.0,61.0,30.08,WSW,255,11.0,23.0,66,-99.99,,,-99.99,,2013-03-06 15:22:00,
2013-03-06 10:32:00,73.0,61.0,30.08,WSW,255,11.0,23.0,66,-99.99,,,-99.99,,2013-03-06 15:32:00,
2013-03-06 10:42:00,70.0,60.0,30.09,WSW,256,10.0,18.0,70,-99.99,,,-99.99,,2013-03-06 15:42:00,
2013-03-06 10:52:00,70.0,60.0,30.09,WSW,256,10.0,18.0,70,-99.99,,,-99.99,,2013-03-06 15:52:00,
2013-03-06 11:02:00,66.0,62.0,30.12,NW,310,9.0,18.0,85,-99.99,,,-99.99,,2013-03-06 16:02:00,
2013-03-06 11:12:00,66.0,62.0,30.12,NW,310,9.0,18.0,85,-99.99,,,-99.99,,2013-03-06 16:12:00,
2013-03-06 11:21:00,65.0,62.0,30.12,NW,312,8.0,13.0,91,-99.99,,,-99.99,,2013-03-06 16:21:00,
2013-03-06 11:32:00,65.0,62.0,30.12,NW,312,8.0,13.0,91,-99.99,,,-99.99,,2013-03-06 16:32:00,
2013-03-06 11:42:00,66.0,62.0,30.12,NW,308,7.0,12.0,89,-99.99,,,-99.99,,2013-03-06 16:42:00,
2013-03-06 11:52:00,66.0,62.0,30.12,NW,308,7.0,12.0,89,-99.99,,,-99.99,,2013-03-06 16:52:00,
2013-03-06 12:01:00,69.0,58.0,30.11,NW,309,8.0,13.0,68,-99.99,,,-99.99,,2013-03-06 17:01:00,
2013-03-06 12:11:00,69.0,58.0,30.11,NW,309,8.0,13.0,68,-99.99,,,-99.99,,2013-03-06 17:11:00,
2013-03-06 12:22:00,69.0,58.0,30.11,NW,309,8.0,13.0,68,-99.99,,,-99.99,,2013-03-06 17:22:00,
2013-03-06 12:32:00,69.0,58.0,30.11,NW,309,8.0,13.0,68,-99.99,,,-99.99,,2013-03-06 17:32:00,
2013-03-06 12:42:00,69.0,56.0,30.11,West,281,9.0,17.0,61,-99.99,,,-99.99,,2013-03-06 17:42:00,
2013-03-06 12:53:00,69.0,56.0,30.11,West,281,9.0,17.0,61,-99.99,,,-99.99,,2013-03-06 17:53:00,
2013-03-06 13:02:00,69.0,53.0,30.11,WNW,298,10.0,16.0,56,-99.99,,,-99.99,,2013-03-06 18:02:00,
2013-03-06 13:29:00,71.0,49.0,30.10,NW,305,8.0,17.0,45,-99.99,,,-99.99,,2013-03-06 18:29:00,
2013-03-06 13:42:00,73.0,49.0,30.08,WNW,296,9.0,16.0,42,-99.99,,,-99.99,,2013-03-06 18:42:00,
2013-03-06 13:53:00,73.0,49.0,30.08,WNW,296,9.0,16.0,42,-99.99,,,-99.99,,2013-03-06 18:53:00,
2013-03-06 14:02:00,74.0,47.0,30.07,WNW,284,9.0,18.0,38,-99.99,,,-99.99,,2013-03-06 19:02:00,
2013-03-06 14:11:00,74.0,47.0,30.07,WNW,284,9.0,18.0,38,-99.99,,,-99.99,,2013-03-06 19:11:00,
2013-03-06 14:22:00,74.0,48.0,30.06,WNW,289,8.0,14.0,39,-99.99,,,-99.99,,2013-03-06 19:22:00,
2013-03-06 14:32:00,74.0,48.0,30.06,WNW,289,8.0,14.0,39,-99.99,,,-99.99,,2013-03-06 19:32:00,
2013-03-06 14:43:00,74.0,48.0,30.05,WNW,288,10.0,19.0,39,-99.99,,,-99.99,,2013-03-06 19:43:00,
2013-03-06 14:53:00,74.0,48.0,30.05,WNW,288,10.0,19.0,39,-99.99,,,-99.99,,2013-03-06 19:53:00,
2013-03-06 15:02:00,73.0,44.0,30.05,WNW,289,12.0,19.0,35,-99.99,,,-99.99,,2013-03-06 20:02:00,
2013-03-06 15:12:00,73.0,44.0,30.05,WNW,289,12.0,19.0,35,-99.99,,,-99.99,,2013-03-06 20:12:00,
2013-03-06 15:22:00,71.0,44.0,30.04,WNW,287,12.0,20.0,37,-99.99,,,-99.99,,2013-03-06 20:22:00,
2013-03-06 15:33:00,71.0,44.0,30.04,WNW,287,12.0,20.0,37,-99.99,,,-99.99,,2013-03-06 20:33:00,
2013-03-06 15:42:00,71.0,42.0,30.04,WNW,295,10.0,18.0,34,-99.99,,,-99.99,,2013-03-06 20:42:00,
2013-03-06 15:53:00,71.0,42.0,30.04,WNW,295,10.0,18.0,34,-99.99,,,-99.99,,2013-03-06 20:53:00,
2013-03-06 16:02:00,68.0,45.0,30.04,WNW,294,12.0,22.0,43,-99.99,,,-99.99,,2013-03-06 21:02:00,
2013-03-06 16:12:00,68.0,45.0,30.04,WNW,294,12.0,22.0,43,-99.99,,,-99.99,,2013-03-06 21:12:00,
2013-03-06 16:22:00,67.0,46.0,30.04,WNW,301,13.0,21.0,46,-99.99,,,-99.99,,2013-03-06 21:22:00,
2013-03-06 16:32:00,67.0,46.0,30.04,WNW,301,13.0,21.0,46,-99.99,,,-99.99,,2013-03-06 21:32:00,
2013-03-06 16:42:00,67.0,45.0,30.04,WNW,296,12.0,25.0,45,-99.99,,,-99.99,,2013-03-06 21:42:00,
2013-03-06 16:52:00,67.0,45.0,30.04,WNW,296,12.0,25.0,45,-99.99,,,-99.99,,2013-03-06 21:52:00,
2013-03-06 17:02:00,65.0,37.0,30.06,NW,314,13.0,26.0,34,-99.99,,,-99.99,,2013-03-06 22:02:00,
2013-03-06 17:11:00,65.0,37.0,30.06,NW,314,13.0,26.0,34,-99.99,,,-99.99,,2013-03-06 22:11:00,
2013-03-06 17:22:00,64.0,40.0,30.06,WNW,303,13.0,21.0,41,-99.99,,,-99.99,,2013-03-06 22:22:00,
2013-03-06 17:32:00,64.0,40.0,30.06,WNW,303,13.0,21.0,41,-99.99,,,-99.99,,2013-03-06 22:32:00,
2013-03-06 17:42:00,63.0,40.0,30.07,NW,313,12.0,21.0,43,-99.99,,,-99.99,,2013-03-06 22:42:00,
2013-03-06 17:52:00,63.0,40.0,30.07,NW,313,12.0,21.0,43,-99.99,,,-99.99,,2013-03-06 22:52:00,
2013-03-06 18:01:00,62.0,41.0,30.07,WNW,301,10.0,18.0,46,-99.99,,,-99.99,,2013-03-06 23:01:00,
2013-03-06 18:11:00,62.0,41.0,30.07,WNW,301,10.0,18.0,46,-99.99,,,-99.99,,2013-03-06 23:11:00,
2013-03-06 18:22:00,61.0,40.0,30.08,WNW,303,10.0,18.0,46,-99.99,,,-99.99,,2013-03-06 23:22:00,
2013-03-06 18:32:00,61.0,40.0,30.08,WNW,303,10.0,18.0,46,-99.99,,,-99.99,,2013-03-06 23:32:00,
2013-03-06 18:42:00,60.0,41.0,30.08,WNW,302,9.0,18.0,49,-99.99,,,-99.99,,2013-03-06 23:42:00,
2013-03-06 18:52:00,60.0,41.0,30.08,WNW,302,9.0,18.0,49,-99.99,,,-99.99,,2013-03-06 23:52:00,
2013-03-06 19:02:00,60.0,41.0,30.08,WNW,302,9.0,18.0,49,-99.99,,,-99.99,,2013-03-07 00:02:00,
2013-03-06 19:11:00,60.0,41.0,30.08,WNW,302,9.0,18.0,49,-99.99,,,-99.99,,2013-03-07 00:11:00,
2013-03-06 19:22:00,57.0,43.0,30.10,NW,310,7.0,15.0,58,-99.99,,,-99.99,,2013-03-07 00:22:00,
2013-03-06 19:32:00,57.0,43.0,30.10,NW,310,7.0,15.0,58,-99.99,,,-99.99,,2013-03-07 00:32:00,
2013-03-06 19:42:00,57.0,43.0,30.10,NW,313,7.0,15.0,59,-99.99,,,-99.99,,2013-03-07 00:42:00,
2013-03-06 19:52:00,57.0,43.0,30.10,NW,313,7.0,15.0,59,-99.99,,,-99.99,,2013-03-07 00:52:00,
2013-03-06 20:01:00,57.0,43.0,30.10,NW,313,7.0,15.0,59,-99.99,,,-99.99,,2013-03-07 01:01:00,
2013-03-06 20:12:00,57.0,43.0,30.10,NW,313,7.0,15.0,59,-99.99,,,-99.99,,2013-03-07 01:12:00,
2013-03-06 20:22:00,56.0,43.0,30.11,NW,312,6.0,11.0,62,-99.99,,,-99.99,,2013-03-07 01:22:00,
2013-03-06 20:32:00,56.0,43.0,30.11,NW,312,6.0,11.0,62,-99.99,,,-99.99,,2013-03-07 01:32:00,
2013-03-06 20:42:00,55.0,43.0,30.11,NW,313,4.0,9.0,64,-99.99,,,-99.99,,2013-03-07 01:42:00,
2013-03-06 20:52:00,55.0,43.0,30.11,NW,313,4.0,9.0,64,-99.99,,,-99.99,,2013-03-07 01:52:00,
2013-03-06 21:01:00,55.0,43.0,30.11,NW,313,4.0,9.0,64,-99.99,,,-99.99,,2013-03-07 02:01:00,
2013-03-06 21:11:00,55.0,43.0,30.11,NW,313,4.0,9.0,64,-99.99,,,-99.99,,2013-03-07 02:11:00,
2013-03-06 21:22:00,54.0,43.0,30.12,NW,321,5.0,11.0,66,-99.99,,,-99.99,,2013-03-07 02:22:00,
2013-03-06 21:32:00,54.0,43.0,30.12,NW,321,5.0,11.0,66,-99.99,,,-99.99,,2013-03-07 02:32:00,
2013-03-06 21:42:00,54.0,43.0,30.12,NW,321,5.0,11.0,66,-99.99,,,-99.99,,2013-03-07 02:42:00,
2013-03-06 22:02:00,53.0,43.0,30.13,NW,318,4.0,8.0,68,-99.99,,,-99.99,,2013-03-07 03:02:00,
2013-03-06 22:12:00,53.0,43.0,30.13,NW,318,4.0,8.0,68,-99.99,,,-99.99,,2013-03-07 03:12:00,
2013-03-06 22:22:00,43.0,39.0,30.14,South,174,1.0,2.0,84,-99.99,,,-99.99,,2013-03-07 03:22:00,
2013-03-06 22:32:00,43.0,39.0,30.14,South,174,1.0,2.0,84,-99.99,,,-99.99,,2013-03-07 03:32:00,
2013-03-06 22:42:00,43.0,39.0,30.14,South,174,1.0,2.0,84,-99.99,,,-99.99,,2013-03-07 03:42:00,
2013-03-06 22:52:00,43.0,39.0,30.14,South,174,1.0,2.0,84,-99.99,,,-99.99,,2013-03-07 03:52:00,
2013-03-06 23:02:00,42.0,39.0,30.14,WNW,290,1.0,2.0,88,-99.99,,,-99.99,,2013-03-07 04:02:00,
2013-03-06 23:12:00,42.0,39.0,30.14,WNW,290,1.0,2.0,88,-99.99,,,-99.99,,2013-03-07 04:12:00,
2013-03-06 23:22:00,39.0,36.0,30.14,West,273,2.0,2.0,90,-99.99,,,-99.99,,2013-03-07 04:22:00,
2013-03-06 23:32:00,39.0,36.0,30.14,West,273,2.0,2.0,90,-99.99,,,-99.99,,2013-03-07 04:32:00,
2013-03-06 23:42:00,38.0,36.0,30.14,SE,141,2.0,3.0,91,-99.99,,,-99.99,,2013-03-07 04:42:00,
2013-03-06 23:52:00,38.0,36.0,30.14,SE,141,2.0,3.0,91,-99.99,,,-99.99,,2013-03-07 04:52:00,